sensor_id;sensor_type;location;lat;lon;timestamp;pressure;altitude;pressure_sealevel;temperature;humidity
46464;BME280;32161;48.148;-1.554;2023-04-06T00:01:39;101311.16;;;10.98;91.33
46464;BME280;32161;48.148;-1.554;2023-04-06T00:04:07;101311.63;;;10.95;91.68
46464;BME280;32161;48.148;-1.554;2023-04-06T00:06:34;101314.34;;;10.95;91.62
46464;BME280;32161;48.148;-1.554;2023-04-06T00:09:03;101305.53;;;10.93;91.72
46464;BME280;32161;48.148;-1.554;2023-04-06T00:11:31;101297.63;;;10.92;91.72
46464;BME280;32161;48.148;-1.554;2023-04-06T00:13:59;101295.94;;;10.91;92.32
46464;BME280;32161;48.148;-1.554;2023-04-06T00:16:27;101286.50;;;10.93;92.09
46464;BME280;32161;48.148;-1.554;2023-04-06T00:18:55;101289.22;;;10.93;91.93
46464;BME280;32161;48.148;-1.554;2023-04-06T00:21:22;101275.47;;;10.88;92.14
46464;BME280;32161;48.148;-1.554;2023-04-06T00:23:51;101277.16;;;10.83;92.62
46464;BME280;32161;48.148;-1.554;2023-04-06T00:26:20;101265.88;;;10.79;92.69
46464;BME280;32161;48.148;-1.554;2023-04-06T00:28:48;101264.22;;;10.78;92.78
46464;BME280;32161;48.148;-1.554;2023-04-06T00:31:18;101250.47;;;10.73;93.01
46464;BME280;32161;48.148;-1.554;2023-04-06T00:33:48;101250.66;;;10.71;93.41
46464;BME280;32161;48.148;-1.554;2023-04-06T00:36:15;101255.91;;;10.73;93.70
46464;BME280;32161;48.148;-1.554;2023-04-06T00:38:43;101253.78;;;10.75;93.65
46464;BME280;32161;48.148;-1.554;2023-04-06T00:41:11;101265.88;;;10.79;93.12
46464;BME280;32161;48.148;-1.554;2023-04-06T00:43:40;101267.78;;;10.79;92.70
46464;BME280;32161;48.148;-1.554;2023-04-06T00:46:08;101276.75;;;10.79;92.69
46464;BME280;32161;48.148;-1.554;2023-04-06T00:48:36;101273.22;;;10.79;92.63
46464;BME280;32161;48.148;-1.554;2023-04-06T00:51:05;101277.03;;;10.71;92.88
46464;BME280;32161;48.148;-1.554;2023-04-06T00:53:33;101267.19;;;10.70;93.11
46464;BME280;32161;48.148;-1.554;2023-04-06T00:56:00;101263.66;;;10.69;93.52
46464;BME280;32161;48.148;-1.554;2023-04-06T00:58:28;101256.94;;;10.72;93.79
46464;BME280;32161;48.148;-1.554;2023-04-06T01:00:58;101246.44;;;10.75;93.60
46464;BME280;32161;48.148;-1.554;2023-04-06T01:03:26;101237.91;;;10.72;93.91
46464;BME280;32161;48.148;-1.554;2023-04-06T01:05:54;101234.53;;;10.77;93.75
46464;BME280;32161;48.148;-1.554;2023-04-06T01:08:24;101238.13;;;10.70;94.10
46464;BME280;32161;48.148;-1.554;2023-04-06T01:10:52;101230.19;;;10.69;94.47
46464;BME280;32161;48.148;-1.554;2023-04-06T01:13:19;101229.13;;;10.70;94.33
46464;BME280;32161;48.148;-1.554;2023-04-06T01:15:47;101220.34;;;10.68;94.32
46464;BME280;32161;48.148;-1.554;2023-04-06T01:18:16;101229.56;;;10.67;94.16
46464;BME280;32161;48.148;-1.554;2023-04-06T01:20:44;101226.25;;;10.65;94.55
46464;BME280;32161;48.148;-1.554;2023-04-06T01:23:13;101228.75;;;10.66;94.85
46464;BME280;32161;48.148;-1.554;2023-04-06T01:25:41;101231.69;;;10.65;94.89
46464;BME280;32161;48.148;-1.554;2023-04-06T01:28:08;101228.34;;;10.63;95.11
46464;BME280;32161;48.148;-1.554;2023-04-06T01:30:36;101222.47;;;10.66;94.67
46464;BME280;32161;48.148;-1.554;2023-04-06T01:33:04;101210.38;;;10.62;95.04
46464;BME280;32161;48.148;-1.554;2023-04-06T01:35:31;101215.75;;;10.68;94.54
46464;BME280;32161;48.148;-1.554;2023-04-06T01:37:59;101214.31;;;10.66;94.55
46464;BME280;32161;48.148;-1.554;2023-04-06T01:40:28;101218.31;;;10.57;94.91
46464;BME280;32161;48.148;-1.554;2023-04-06T01:42:56;101222.34;;;10.54;95.28
46464;BME280;32161;48.148;-1.554;2023-04-06T01:45:23;101222.09;;;10.56;95.01
46464;BME280;32161;48.148;-1.554;2023-04-06T01:47:51;101217.50;;;10.56;94.93
46464;BME280;32161;48.148;-1.554;2023-04-06T01:50:19;101227.16;;;10.52;95.23
46464;BME280;32161;48.148;-1.554;2023-04-06T01:52:46;101222.13;;;10.49;95.41
46464;BME280;32161;48.148;-1.554;2023-04-06T01:55:14;101211.25;;;10.49;95.19
46464;BME280;32161;48.148;-1.554;2023-04-06T01:57:43;101209.59;;;10.48;95.68
46464;BME280;32161;48.148;-1.554;2023-04-06T02:00:13;101211.25;;;10.49;95.68
46464;BME280;32161;48.148;-1.554;2023-04-06T02:02:41;101219.63;;;10.54;95.05
46464;BME280;32161;48.148;-1.554;2023-04-06T02:05:08;101206.03;;;10.54;95.00
46464;BME280;32161;48.148;-1.554;2023-04-06T02:07:36;101208.94;;;10.52;94.78
46464;BME280;32161;48.148;-1.554;2023-04-06T02:10:11;101203.09;;;10.56;94.43
46464;BME280;32161;48.148;-1.554;2023-04-06T02:12:39;101206.06;;;10.47;95.10
46464;BME280;32161;48.148;-1.554;2023-04-06T02:15:10;101211.53;;;10.41;95.74
46464;BME280;32161;48.148;-1.554;2023-04-06T02:17:39;101205.25;;;10.40;95.90
46464;BME280;32161;48.148;-1.554;2023-04-06T02:20:08;101203.19;;;10.42;95.67
46464;BME280;32161;48.148;-1.554;2023-04-06T02:22:36;101197.50;;;10.44;95.39
46464;BME280;32161;48.148;-1.554;2023-04-06T02:25:04;101185.78;;;10.50;95.14
46464;BME280;32161;48.148;-1.554;2023-04-06T02:27:32;101183.66;;;10.52;94.59
46464;BME280;32161;48.148;-1.554;2023-04-06T02:30:00;101187.84;;;10.55;94.53
46464;BME280;32161;48.148;-1.554;2023-04-06T02:32:29;101189.75;;;10.47;94.75
46464;BME280;32161;48.148;-1.554;2023-04-06T02:34:57;101196.91;;;10.42;95.06
46464;BME280;32161;48.148;-1.554;2023-04-06T02:37:24;101197.09;;;10.40;95.50
46464;BME280;32161;48.148;-1.554;2023-04-06T02:39:52;101187.31;;;10.39;95.67
46464;BME280;32161;48.148;-1.554;2023-04-06T02:42:20;101182.47;;;10.41;94.96
46464;BME280;32161;48.148;-1.554;2023-04-06T02:44:47;101177.50;;;10.38;94.76
46464;BME280;32161;48.148;-1.554;2023-04-06T02:47:15;101179.16;;;10.39;94.63
46464;BME280;32161;48.148;-1.554;2023-04-06T02:49:44;101173.31;;;10.36;94.41
46464;BME280;32161;48.148;-1.554;2023-04-06T02:52:12;101179.56;;;10.36;93.77
46464;BME280;32161;48.148;-1.554;2023-04-06T02:54:39;101190.44;;;10.36;94.02
46464;BME280;32161;48.148;-1.554;2023-04-06T02:57:07;101187.34;;;10.33;94.49
46464;BME280;32161;48.148;-1.554;2023-04-06T02:59:35;101188.78;;;10.35;94.51
46464;BME280;32161;48.148;-1.554;2023-04-06T03:02:03;101186.66;;;10.37;93.70
46464;BME280;32161;48.148;-1.554;2023-04-06T03:04:30;101175.81;;;10.37;93.74
46464;BME280;32161;48.148;-1.554;2023-04-06T03:06:59;101175.19;;;10.35;93.84
46464;BME280;32161;48.148;-1.554;2023-04-06T03:09:27;101177.75;;;10.30;94.43
46464;BME280;32161;48.148;-1.554;2023-04-06T03:11:55;101185.91;;;10.30;94.83
46464;BME280;32161;48.148;-1.554;2023-04-06T03:14:22;101183.19;;;10.30;94.77
46464;BME280;32161;48.148;-1.554;2023-04-06T03:16:50;101173.34;;;10.29;94.81
46464;BME280;32161;48.148;-1.554;2023-04-06T03:19:18;101176.69;;;10.31;95.12
46464;BME280;32161;48.148;-1.554;2023-04-06T03:21:45;101165.81;;;10.31;95.12
46464;BME280;32161;48.148;-1.554;2023-04-06T03:24:14;101170.44;;;10.31;95.29
46464;BME280;32161;48.148;-1.554;2023-04-06T03:26:42;101175.03;;;10.30;95.73
46464;BME280;32161;48.148;-1.554;2023-04-06T03:29:10;101173.75;;;10.33;95.44
46464;BME280;32161;48.148;-1.554;2023-04-06T03:31:37;101176.69;;;10.31;95.41
46464;BME280;32161;48.148;-1.554;2023-04-06T03:34:05;101168.53;;;10.31;95.24
46464;BME280;32161;48.148;-1.554;2023-04-06T03:36:34;101179.38;;;10.38;95.37
46464;BME280;32161;48.148;-1.554;2023-04-06T03:39:02;101174.81;;;10.32;95.54
46464;BME280;32161;48.148;-1.554;2023-04-06T03:41:31;101173.31;;;10.36;95.86
46464;BME280;32161;48.148;-1.554;2023-04-06T03:43:59;101171.03;;;10.33;95.99
46464;BME280;32161;48.148;-1.554;2023-04-06T03:46:26;101167.66;;;10.37;96.07
46464;BME280;32161;48.148;-1.554;2023-04-06T03:48:54;101170.38;;;10.37;95.81
46464;BME280;32161;48.148;-1.554;2023-04-06T03:51:22;101157.66;;;10.31;96.19
46464;BME280;32161;48.148;-1.554;2023-04-06T03:53:49;101153.19;;;10.43;95.60
46464;BME280;32161;48.148;-1.554;2023-04-06T03:56:17;101145.72;;;10.39;95.42
46464;BME280;32161;48.148;-1.554;2023-04-06T03:58:46;101158.22;;;10.40;95.93
46464;BME280;32161;48.148;-1.554;2023-04-06T04:01:16;101151.56;;;10.36;95.59
46464;BME280;32161;48.148;-1.554;2023-04-06T04:03:44;101150.91;;;10.40;95.39
46464;BME280;32161;48.148;-1.554;2023-04-06T04:06:12;101156.34;;;10.40;95.04
46464;BME280;32161;48.148;-1.554;2023-04-06T04:08:39;101151.97;;;10.39;94.71
46464;BME280;32161;48.148;-1.554;2023-04-06T04:11:07;101156.16;;;10.42;93.99
46464;BME280;32161;48.148;-1.554;2023-04-06T04:13:35;101158.53;;;10.25;94.99
46464;BME280;32161;48.148;-1.554;2023-04-06T04:16:05;101155.19;;;10.23;95.65
46464;BME280;32161;48.148;-1.554;2023-04-06T04:18:32;101154.13;;;10.24;95.44
46464;BME280;32161;48.148;-1.554;2023-04-06T04:21:00;101158.34;;;10.26;95.18
46464;BME280;32161;48.148;-1.554;2023-04-06T04:23:28;101152.66;;;10.21;95.48
46464;BME280;32161;48.148;-1.554;2023-04-06T04:25:55;101155.19;;;10.23;95.76
46464;BME280;32161;48.148;-1.554;2023-04-06T04:28:23;101157.47;;;10.26;95.74
46464;BME280;32161;48.148;-1.554;2023-04-06T04:30:51;101157.88;;;10.30;95.73
46464;BME280;32161;48.148;-1.554;2023-04-06T04:33:19;101157.41;;;10.39;95.32
46464;BME280;32161;48.148;-1.554;2023-04-06T04:35:47;101160.34;;;10.38;94.38
46464;BME280;32161;48.148;-1.554;2023-04-06T04:38:15;101156.78;;;10.37;94.04
46464;BME280;32161;48.148;-1.554;2023-04-06T04:40:43;101154.72;;;10.33;94.62
46464;BME280;32161;48.148;-1.554;2023-04-06T04:43:10;101160.72;;;10.41;94.58
46464;BME280;32161;48.148;-1.554;2023-04-06T04:45:38;101161.19;;;10.38;94.71
46464;BME280;32161;48.148;-1.554;2023-04-06T04:48:06;101161.59;;;10.42;94.60
46464;BME280;32161;48.148;-1.554;2023-04-06T04:50:36;101162.84;;;10.39;94.52
46464;BME280;32161;48.148;-1.554;2023-04-06T04:53:03;101152.81;;;10.40;94.86
46464;BME280;32161;48.148;-1.554;2023-04-06T04:55:32;101154.03;;;10.44;95.14
46464;BME280;32161;48.148;-1.554;2023-04-06T04:58:00;101158.63;;;10.43;94.97
46464;BME280;32161;48.148;-1.554;2023-04-06T05:00:28;101155.09;;;10.43;95.12
46464;BME280;32161;48.148;-1.554;2023-04-06T05:02:56;101151.69;;;10.47;95.52
46464;BME280;32161;48.148;-1.554;2023-04-06T05:05:24;101140.72;;;10.61;94.82
46464;BME280;32161;48.148;-1.554;2023-04-06T05:07:53;101146.41;;;10.59;94.46
46464;BME280;32161;48.148;-1.554;2023-04-06T05:10:21;101137.94;;;10.42;95.58
46464;BME280;32161;48.148;-1.554;2023-04-06T05:12:49;101140.25;;;10.45;96.39
46464;BME280;32161;48.148;-1.554;2023-04-06T05:15:17;101139.44;;;10.38;96.78
46464;BME280;32161;48.148;-1.554;2023-04-06T05:17:44;101147.00;;;10.30;97.88
46464;BME280;32161;48.148;-1.554;2023-04-06T05:20:12;101144.09;;;10.31;98.19
46464;BME280;32161;48.148;-1.554;2023-04-06T05:22:40;101145.56;;;10.27;98.23
46464;BME280;32161;48.148;-1.554;2023-04-06T05:25:09;101145.34;;;10.29;98.74
46464;BME280;32161;48.148;-1.554;2023-04-06T05:27:37;101138.81;;;10.36;98.56
46464;BME280;32161;48.148;-1.554;2023-04-06T05:30:07;101140.44;;;10.44;97.51
46464;BME280;32161;48.148;-1.554;2023-04-06T05:32:35;101146.97;;;10.36;97.84
46464;BME280;32161;48.148;-1.554;2023-04-06T05:35:03;101148.47;;;10.32;98.15
46464;BME280;32161;48.148;-1.554;2023-04-06T05:37:30;101152.66;;;10.28;98.28
46464;BME280;32161;48.148;-1.554;2023-04-06T05:39:58;101152.63;;;10.35;98.18
46464;BME280;32161;48.148;-1.554;2023-04-06T05:42:27;101152.81;;;10.40;98.30
46464;BME280;32161;48.148;-1.554;2023-04-06T05:44:56;101154.47;;;10.41;97.58
46464;BME280;32161;48.148;-1.554;2023-04-06T05:47:23;101156.31;;;10.47;97.45
46464;BME280;32161;48.148;-1.554;2023-04-06T05:49:51;101155.75;;;10.38;97.30
46464;BME280;32161;48.148;-1.554;2023-04-06T05:52:19;101152.56;;;10.41;97.24
46464;BME280;32161;48.148;-1.554;2023-04-06T05:54:46;101133.94;;;10.45;96.75
46464;BME280;32161;48.148;-1.554;2023-04-06T05:57:14;101140.47;;;10.37;97.21
46464;BME280;32161;48.148;-1.554;2023-04-06T05:59:44;101136.94;;;10.37;97.94
46464;BME280;32161;48.148;-1.554;2023-04-06T06:02:11;101136.53;;;10.33;98.05
46464;BME280;32161;48.148;-1.554;2023-04-06T06:04:40;101134.00;;;10.38;98.32
46464;BME280;32161;48.148;-1.554;2023-04-06T06:07:07;101132.97;;;10.33;98.39
46464;BME280;32161;48.148;-1.554;2023-04-06T06:09:35;101123.41;;;10.30;98.81
46464;BME280;32161;48.148;-1.554;2023-04-06T06:12:03;101134.72;;;10.27;98.80
46464;BME280;32161;48.148;-1.554;2023-04-06T06:14:30;101135.09;;;10.24;99.24
46464;BME280;32161;48.148;-1.554;2023-04-06T06:16:59;101132.38;;;10.24;99.26
46464;BME280;32161;48.148;-1.554;2023-04-06T06:19:27;101135.53;;;10.27;98.97
46464;BME280;32161;48.148;-1.554;2023-04-06T06:21:55;101135.31;;;10.29;99.15
46464;BME280;32161;48.148;-1.554;2023-04-06T06:24:22;101135.63;;;10.46;98.01
46464;BME280;32161;48.148;-1.554;2023-04-06T06:26:50;101134.13;;;10.50;97.66
46464;BME280;32161;48.148;-1.554;2023-04-06T06:29:18;101145.88;;;10.44;98.29
46464;BME280;32161;48.148;-1.554;2023-04-06T06:31:46;101144.22;;;10.43;98.17
46464;BME280;32161;48.148;-1.554;2023-04-06T06:34:15;101162.84;;;10.39;98.90
46464;BME280;32161;48.148;-1.554;2023-04-06T06:36:43;101162.84;;;10.39;99.37
46464;BME280;32161;48.148;-1.554;2023-04-06T06:39:11;101156.34;;;10.40;99.83
46464;BME280;32161;48.148;-1.554;2023-04-06T06:41:38;101148.72;;;10.56;99.61
46464;BME280;32161;48.148;-1.554;2023-04-06T06:44:06;101157.50;;;10.58;98.66
46464;BME280;32161;48.148;-1.554;2023-04-06T06:46:34;101149.94;;;10.60;98.65
46464;BME280;32161;48.148;-1.554;2023-04-06T06:49:01;101140.28;;;10.64;98.89
46464;BME280;32161;48.148;-1.554;2023-04-06T06:51:30;101134.91;;;10.82;97.83
46464;BME280;32161;48.148;-1.554;2023-04-06T06:53:58;101136.56;;;10.83;97.42
46464;BME280;32161;48.148;-1.554;2023-04-06T06:56:26;101147.41;;;10.90;97.21
46464;BME280;32161;48.148;-1.554;2023-04-06T06:58:54;101142.97;;;10.95;97.21
46464;BME280;32161;48.148;-1.554;2023-04-06T07:01:21;101144.94;;;11.07;97.00
46464;BME280;32161;48.148;-1.554;2023-04-06T07:03:49;101152.75;;;11.03;96.72
46464;BME280;32161;48.148;-1.554;2023-04-06T07:06:17;101154.00;;;11.00;96.85
46464;BME280;32161;48.148;-1.554;2023-04-06T07:08:46;101147.06;;;11.05;96.97
46464;BME280;32161;48.148;-1.554;2023-04-06T07:11:14;101149.34;;;11.08;96.99
46464;BME280;32161;48.148;-1.554;2023-04-06T07:13:42;101154.16;;;11.06;97.14
46464;BME280;32161;48.148;-1.554;2023-04-06T07:16:10;101162.94;;;11.08;97.31
46464;BME280;32161;48.148;-1.554;2023-04-06T07:18:37;101164.44;;;11.04;97.82
46464;BME280;32161;48.148;-1.554;2023-04-06T07:21:05;101172.78;;;11.09;98.25
46464;BME280;32161;48.148;-1.554;2023-04-06T07:23:33;101178.59;;;11.12;98.10
46464;BME280;32161;48.148;-1.554;2023-04-06T07:26:02;101191.13;;;11.13;98.25
46464;BME280;32161;48.148;-1.554;2023-04-06T07:28:30;101196.13;;;11.16;98.21
46464;BME280;32161;48.148;-1.554;2023-04-06T07:30:57;101202.78;;;11.20;97.71
46464;BME280;32161;48.148;-1.554;2023-04-06T07:33:25;101195.03;;;11.24;96.92
46464;BME280;32161;48.148;-1.554;2023-04-06T07:35:56;101191.25;;;11.25;97.09
46464;BME280;32161;48.148;-1.554;2023-04-06T07:38:25;101187.69;;;11.24;96.58
46464;BME280;32161;48.148;-1.554;2023-04-06T07:40:52;101190.34;;;11.31;96.60
46464;BME280;32161;48.148;-1.554;2023-04-06T07:43:21;101192.44;;;11.29;96.54
46464;BME280;32161;48.148;-1.554;2023-04-06T07:45:49;101198.91;;;11.35;96.70
46464;BME280;32161;48.148;-1.554;2023-04-06T07:48:17;101200.31;;;11.37;96.49
46464;BME280;32161;48.148;-1.554;2023-04-06T07:50:44;101197.78;;;11.42;96.28
46464;BME280;32161;48.148;-1.554;2023-04-06T07:53:12;101201.34;;;11.43;96.00
46464;BME280;32161;48.148;-1.554;2023-04-06T07:55:40;101209.88;;;11.46;96.09
46464;BME280;32161;48.148;-1.554;2023-04-06T07:58:07;101205.28;;;11.47;95.74
46464;BME280;32161;48.148;-1.554;2023-04-06T08:00:36;101210.88;;;11.52;95.41
46464;BME280;32161;48.148;-1.554;2023-04-06T08:03:04;101212.59;;;11.46;95.94
46464;BME280;32161;48.148;-1.554;2023-04-06T08:05:31;101223.66;;;11.52;96.29
46464;BME280;32161;48.148;-1.554;2023-04-06T08:07:59;101223.50;;;11.46;96.72
46464;BME280;32161;48.148;-1.554;2023-04-06T08:10:27;101206.25;;;11.53;97.25
46464;BME280;32161;48.148;-1.554;2023-04-06T08:12:54;101205.06;;;11.67;98.16
46464;BME280;32161;48.148;-1.554;2023-04-06T08:15:22;101205.38;;;11.77;97.60
46464;BME280;32161;48.148;-1.554;2023-04-06T08:17:51;101217.16;;;11.71;98.46
46464;BME280;32161;48.148;-1.554;2023-04-06T08:20:19;101219.13;;;11.82;98.61
46464;BME280;32161;48.148;-1.554;2023-04-06T08:22:47;101223.44;;;11.71;99.17
46464;BME280;32161;48.148;-1.554;2023-04-06T08:25:14;101230.78;;;11.71;99.76
46464;BME280;32161;48.148;-1.554;2023-04-06T08:27:42;101233.06;;;11.74;99.53
46464;BME280;32161;48.148;-1.554;2023-04-06T08:30:10;101227.66;;;11.67;99.55
46464;BME280;32161;48.148;-1.554;2023-04-06T08:32:38;101226.84;;;11.67;100.00
46464;BME280;32161;48.148;-1.554;2023-04-06T08:35:09;101228.81;;;11.78;100.00
46464;BME280;32161;48.148;-1.554;2023-04-06T08:37:36;101225.97;;;11.91;99.13
46464;BME280;32161;48.148;-1.554;2023-04-06T08:40:05;101227.72;;;11.86;99.40
46464;BME280;32161;48.148;-1.554;2023-04-06T08:42:34;101225.13;;;11.91;99.83
46464;BME280;32161;48.148;-1.554;2023-04-06T08:45:08;101222.56;;;11.96;99.36
46464;BME280;32161;48.148;-1.554;2023-04-06T08:47:36;101223.03;;;11.93;98.99
46464;BME280;32161;48.148;-1.554;2023-04-06T08:50:06;101222.19;;;11.92;99.11
46464;BME280;32161;48.148;-1.554;2023-04-06T08:52:36;101226.72;;;11.98;98.83
46464;BME280;32161;48.148;-1.554;2023-04-06T08:55:05;101224.44;;;12.14;98.35
46464;BME280;32161;48.148;-1.554;2023-04-06T08:57:35;101217.41;;;12.06;98.89
46464;BME280;32161;48.148;-1.554;2023-04-06T09:00:05;101221.81;;;12.07;99.57
46464;BME280;32161;48.148;-1.554;2023-04-06T09:02:33;101221.94;;;12.12;99.58
46464;BME280;32161;48.148;-1.554;2023-04-06T09:05:01;101227.34;;;12.19;99.43
46464;BME280;32161;48.148;-1.554;2023-04-06T09:07:29;101226.84;;;12.22;99.58
46464;BME280;32161;48.148;-1.554;2023-04-06T09:09:58;101234.56;;;12.25;99.77
46464;BME280;32161;48.148;-1.554;2023-04-06T09:12:27;101241.47;;;12.28;99.58
46464;BME280;32161;48.148;-1.554;2023-04-06T09:14:57;101241.38;;;12.34;98.08
46464;BME280;32161;48.148;-1.554;2023-04-06T09:17:26;101235.44;;;12.37;97.45
46464;BME280;32161;48.148;-1.554;2023-04-06T09:19:55;101242.59;;;12.38;96.96
46464;BME280;32161;48.148;-1.554;2023-04-06T09:22:23;101235.38;;;12.44;97.35
46464;BME280;32161;48.148;-1.554;2023-04-06T09:24:54;101245.75;;;12.54;97.23
46464;BME280;32161;48.148;-1.554;2023-04-06T09:27:32;101246.81;;;12.64;96.96
46464;BME280;32161;48.148;-1.554;2023-04-06T09:30:06;101262.91;;;12.73;97.25
46464;BME280;32161;48.148;-1.554;2023-04-06T09:32:48;101260.19;;;12.84;96.90
46464;BME280;32161;48.148;-1.554;2023-04-06T09:35:17;101252.13;;;12.89;96.39
46464;BME280;32161;48.148;-1.554;2023-04-06T09:37:47;101254.97;;;12.83;96.37
46464;BME280;32161;48.148;-1.554;2023-04-06T09:40:15;101245.94;;;12.82;97.02
46464;BME280;32161;48.148;-1.554;2023-04-06T09:42:46;101243.34;;;12.87;96.88
46464;BME280;32161;48.148;-1.554;2023-04-06T09:45:14;101260.19;;;12.84;98.15
46464;BME280;32161;48.148;-1.554;2023-04-06T09:47:44;101274.88;;;12.83;99.37
46464;BME280;32161;48.148;-1.554;2023-04-06T09:50:13;101277.03;;;12.81;98.71
46464;BME280;32161;48.148;-1.554;2023-04-06T09:52:47;101274.19;;;12.76;98.83
46464;BME280;32161;48.148;-1.554;2023-04-06T09:55:23;101270.28;;;12.84;99.54
46464;BME280;32161;48.148;-1.554;2023-04-06T09:58:01;101268.00;;;12.81;100.00
46464;BME280;32161;48.148;-1.554;2023-04-06T10:00:39;101265.53;;;12.91;100.00
46464;BME280;32161;48.148;-1.554;2023-04-06T10:03:14;101266.28;;;12.98;100.00
46464;BME280;32161;48.148;-1.554;2023-04-06T10:05:50;101255.53;;;13.15;99.12
46464;BME280;32161;48.148;-1.554;2023-04-06T10:08:19;101260.06;;;13.33;97.56
46464;BME280;32161;48.148;-1.554;2023-04-06T10:10:51;101258.97;;;13.22;95.86
46464;BME280;32161;48.148;-1.554;2023-04-06T10:13:20;101277.00;;;13.11;96.87
46464;BME280;32161;48.148;-1.554;2023-04-06T10:15:49;101273.44;;;13.11;96.13
46464;BME280;32161;48.148;-1.554;2023-04-06T10:18:18;101272.84;;;13.20;95.19
46464;BME280;32161;48.148;-1.554;2023-04-06T10:20:50;101263.22;;;13.18;95.30
46464;BME280;32161;48.148;-1.554;2023-04-06T10:23:24;101260.84;;;13.22;96.52
46464;BME280;32161;48.148;-1.554;2023-04-06T10:25:54;101261.03;;;13.27;96.68
46464;BME280;32161;48.148;-1.554;2023-04-06T10:28:25;101254.97;;;13.36;98.56
46464;BME280;32161;48.148;-1.554;2023-04-06T10:30:58;101250.34;;;13.49;97.36
46464;BME280;32161;48.148;-1.554;2023-04-06T10:33:26;101258.44;;;13.67;96.22
46464;BME280;32161;48.148;-1.554;2023-04-06T10:35:54;101245.56;;;13.91;92.63
46464;BME280;32161;48.148;-1.554;2023-04-06T10:38:33;101251.16;;;13.96;91.44
46464;BME280;32161;48.148;-1.554;2023-04-06T10:41:04;101244.50;;;14.04;94.13
46464;BME280;32161;48.148;-1.554;2023-04-06T10:43:36;101245.38;;;14.21;95.59
46464;BME280;32161;48.148;-1.554;2023-04-06T10:46:06;101245.59;;;14.31;95.83
46464;BME280;32161;48.148;-1.554;2023-04-06T10:48:39;101251.78;;;14.38;95.02
46464;BME280;32161;48.148;-1.554;2023-04-06T10:51:12;101252.84;;;14.49;88.80
46464;BME280;32161;48.148;-1.554;2023-04-06T10:53:42;101256.00;;;14.58;89.13
46464;BME280;32161;48.148;-1.554;2023-04-06T10:56:13;101262.84;;;14.72;86.78
46464;BME280;32161;48.148;-1.554;2023-04-06T10:58:46;101261.38;;;14.81;85.70
46464;BME280;32161;48.148;-1.554;2023-04-06T11:01:15;101279.22;;;15.01;88.36
46464;BME280;32161;48.148;-1.554;2023-04-06T11:03:44;101266.63;;;15.00;87.69
46464;BME280;32161;48.148;-1.554;2023-04-06T11:06:19;101261.72;;;15.02;86.65
46464;BME280;32161;48.148;-1.554;2023-04-06T11:08:47;101267.06;;;15.08;86.30
46464;BME280;32161;48.148;-1.554;2023-04-06T11:11:16;101262.72;;;15.12;85.13
46464;BME280;32161;48.148;-1.554;2023-04-06T11:13:49;101266.38;;;15.18;85.72
46464;BME280;32161;48.148;-1.554;2023-04-06T11:16:18;101273.19;;;15.32;84.28
46464;BME280;32161;48.148;-1.554;2023-04-06T11:18:54;101269.63;;;15.32;81.96
46464;BME280;32161;48.148;-1.554;2023-04-06T11:21:34;101255.44;;;15.35;81.80
46464;BME280;32161;48.148;-1.554;2023-04-06T11:24:11;101253.03;;;15.38;81.17
46464;BME280;32161;48.148;-1.554;2023-04-06T11:26:41;101254.41;;;15.41;80.37
46464;BME280;32161;48.148;-1.554;2023-04-06T11:29:13;101255.91;;;15.49;79.62
46464;BME280;32161;48.148;-1.554;2023-04-06T11:31:45;101253.78;;;15.51;79.52
46464;BME280;32161;48.148;-1.554;2023-04-06T11:34:16;101250.28;;;15.55;78.67
46464;BME280;32161;48.148;-1.554;2023-04-06T11:36:46;101238.47;;;15.55;77.13
46464;BME280;32161;48.148;-1.554;2023-04-06T11:39:19;101226.25;;;15.62;78.92
46464;BME280;32161;48.148;-1.554;2023-04-06T11:41:48;101225.84;;;15.71;79.03
46464;BME280;32161;48.148;-1.554;2023-04-06T11:44:31;101214.22;;;15.80;79.67
46464;BME280;32161;48.148;-1.554;2023-04-06T11:47:00;101213.59;;;15.95;79.01
46464;BME280;32161;48.148;-1.554;2023-04-06T11:49:28;101206.44;;;16.16;77.68
46464;BME280;32161;48.148;-1.554;2023-04-06T11:51:56;101209.31;;;16.26;76.58
46464;BME280;32161;48.148;-1.554;2023-04-06T11:54:33;101206.09;;;16.34;74.58
46464;BME280;32161;48.148;-1.554;2023-04-06T11:57:03;101207.06;;;16.45;74.70
46464;BME280;32161;48.148;-1.554;2023-04-06T11:59:33;101214.34;;;16.62;73.72
46464;BME280;32161;48.148;-1.554;2023-04-06T12:02:01;101210.41;;;16.52;73.26
46464;BME280;32161;48.148;-1.554;2023-04-06T12:04:29;101214.75;;;16.48;74.61
46464;BME280;32161;48.148;-1.554;2023-04-06T12:06:58;101210.09;;;16.49;75.62
46464;BME280;32161;48.148;-1.554;2023-04-06T12:09:26;101219.22;;;16.54;73.08
46464;BME280;32161;48.148;-1.554;2023-04-06T12:11:53;101209.06;;;16.55;73.13
46464;BME280;32161;48.148;-1.554;2023-04-06T12:14:22;101195.53;;;16.48;74.45
46464;BME280;32161;48.148;-1.554;2023-04-06T12:16:51;101203.25;;;16.51;71.95
46464;BME280;32161;48.148;-1.554;2023-04-06T12:19:18;101205.66;;;16.43;73.20
46464;BME280;32161;48.148;-1.554;2023-04-06T12:21:47;101208.34;;;16.38;72.64
46464;BME280;32161;48.148;-1.554;2023-04-06T12:24:14;101215.66;;;16.32;73.51
46464;BME280;32161;48.148;-1.554;2023-04-06T12:26:42;101220.84;;;16.28;74.10
46464;BME280;32161;48.148;-1.554;2023-04-06T12:29:10;101226.91;;;16.30;73.80
46464;BME280;32161;48.148;-1.554;2023-04-06T12:31:39;101230.03;;;16.17;73.94
46464;BME280;32161;48.148;-1.554;2023-04-06T12:34:10;101236.88;;;16.15;74.21
46464;BME280;32161;48.148;-1.554;2023-04-06T12:36:38;101238.53;;;16.16;74.21
46464;BME280;32161;48.148;-1.554;2023-04-06T12:39:06;101234.97;;;16.15;73.92
46464;BME280;32161;48.148;-1.554;2023-04-06T12:41:34;101238.25;;;16.17;74.44
46464;BME280;32161;48.148;-1.554;2023-04-06T12:44:01;101234.44;;;16.18;72.38
46464;BME280;32161;48.148;-1.554;2023-04-06T12:46:30;101240.13;;;16.11;72.48
46464;BME280;32161;48.148;-1.554;2023-04-06T12:48:58;101239.53;;;16.09;73.67